createdAt,value
2018-02-25T16:58:18.821Z,21.98
2018-02-25T17:02:41.036Z,19.80
2018-02-25T17:05:09.008Z,17.75
2018-02-25T17:07:36.872Z,17.70
2018-02-25T17:10:04.760Z,19.85
2018-02-25T17:12:32.784Z,16.00
2018-02-25T17:15:00.704Z,15.68
2018-02-25T17:17:28.629Z,15.98
2018-02-25T17:19:56.513Z,14.00
2018-02-25T17:22:24.421Z,12.52
2018-02-25T17:24:52.289Z,13.65
2018-02-25T17:27:20.344Z,13.20
2018-02-25T17:29:48.212Z,12.73
2018-02-25T17:32:16.097Z,12.70
2018-02-25T17:34:44.068Z,11.35
2018-02-25T17:37:11.998Z,12.50
2018-02-25T17:39:39.868Z,11.38
2018-02-25T17:42:07.756Z,11.57
2018-02-25T17:44:35.660Z,11.25
2018-02-25T17:47:03.609Z,10.07
2018-02-25T17:49:31.513Z,10.60
2018-02-25T17:51:59.407Z,9.77
2018-02-25T17:54:27.320Z,9.15
2018-02-25T17:56:55.460Z,9.25
2018-02-25T17:59:23.332Z,8.85
2018-02-25T18:01:51.254Z,9.02
2018-02-25T18:04:19.148Z,8.20
2018-02-25T18:06:47.202Z,8.27
2018-02-25T18:09:15.194Z,7.97
2018-02-25T18:11:43.289Z,7.62
2018-02-25T18:14:11.163Z,8.10
2018-02-25T18:16:39.033Z,7.22
2018-02-25T18:19:06.940Z,6.78
2018-02-25T18:21:34.860Z,6.80
2018-02-25T18:24:02.739Z,6.53
2018-02-25T18:26:30.637Z,6.18
2018-02-25T18:28:58.639Z,6.85
2018-02-25T18:31:26.761Z,5.85
2018-02-25T18:33:54.668Z,6.07
2018-02-25T18:36:22.776Z,5.80
2018-02-25T18:38:50.656Z,5.85
2018-02-25T18:41:18.560Z,5.75
2018-02-25T18:43:46.805Z,6.15
2018-02-25T18:46:14.971Z,5.43
2018-02-25T18:48:42.872Z,5.35
2018-02-25T18:51:10.800Z,5.45
2018-02-25T18:53:38.844Z,4.93
2018-02-25T18:56:06.729Z,5.53
2018-02-25T18:58:34.616Z,5.15
2018-02-25T19:01:02.532Z,5.18
2018-02-25T19:03:30.572Z,5.22
2018-02-25T19:05:58.444Z,5.00
2018-02-25T19:08:26.344Z,4.70
2018-02-25T19:10:54.253Z,5.18
2018-02-25T19:13:22.148Z,4.28
2018-02-25T19:15:50.080Z,4.15
2018-02-25T19:18:18.001Z,4.65
2018-02-25T19:20:46.062Z,5.40
2018-02-25T19:23:13.948Z,4.85
2018-02-25T19:25:41.825Z,4.78
2018-02-25T19:28:09.724Z,4.50
2018-02-25T19:30:37.685Z,4.70
2018-02-25T19:33:05.581Z,4.10
2018-02-25T19:35:39.572Z,4.57
2018-02-25T19:38:13.581Z,4.50
2018-02-25T19:40:47.527Z,4.30
2018-02-25T19:43:15.424Z,4.65
